Time;durP1;ratioP1;P1;durP2;ratioP2;P2;SDS_P1;SDS_P2;PMS_P1;PMS_P2;Temp;Humidity;BMP_temperature;BMP_pressure;BME280_temperature;BME280_humidity;BME280_pressure;Samples;Min_cycle;Max_cycle;Signal;HPM_P1;HPM_P2
2023/07/30 00:01:12;;;;;;;3.85;2.65;;;17.10;99.90;;;;;;8353828;28;20041;-80
2023/07/30 00:05:12;;;;;;;3.30;2.22;;;17.10;99.90;;;;;;8346636;28;20021;-81
2023/07/30 00:09:13;;;;;;;4.18;2.58;;;17.10;99.90;;;;;;8377286;28;20039;-80
2023/07/30 00:13:13;;;;;;;3.55;2.70;;;17.20;99.90;;;;;;8360031;28;20530;-81
2023/07/30 00:17:14;;;;;;;3.25;2.65;;;17.40;99.90;;;;;;8373159;28;20063;-81
2023/07/30 00:21:14;;;;;;;4.03;2.95;;;17.40;99.90;;;;;;8352448;28;20032;-80
2023/07/30 00:25:15;;;;;;;5.43;3.42;;;17.20;99.90;;;;;;8349590;28;20029;-81
2023/07/30 00:29:15;;;;;;;4.25;2.95;;;17.10;99.90;;;;;;8372967;28;20041;-81
2023/07/30 00:33:16;;;;;;;4.90;3.60;;;17.20;99.90;;;;;;8372352;28;20070;-82
2023/07/30 00:37:16;;;;;;;4.53;3.63;;;17.20;99.90;;;;;;8353123;28;20024;-81
2023/07/30 00:41:17;;;;;;;5.47;3.88;;;17.10;99.90;;;;;;8348291;28;20021;-81
2023/07/30 00:45:18;;;;;;;5.65;3.47;;;17.40;99.90;;;;;;8349540;28;20120;-81
2023/07/30 00:49:18;;;;;;;5.40;3.60;;;17.50;99.90;;;;;;8363678;28;20029;-80
2023/07/30 00:53:21;;;;;;;5.57;3.35;;;17.50;99.90;;;;;;8365824;28;20387;-81
2023/07/30 00:57:23;;;;;;;4.05;3.33;;;17.40;99.90;;;;;;8360952;28;20024;-81
2023/07/30 01:01:23;;;;;;;5.00;3.92;;;17.50;99.90;;;;;;8359594;28;20032;-81
2023/07/30 01:05:24;;;;;;;4.88;3.90;;;17.50;99.90;;;;;;8377346;28;20151;-81
2023/07/30 01:09:24;;;;;;;5.57;3.70;;;17.40;99.90;;;;;;8354613;28;20029;-80
2023/07/30 01:13:27;;;;;;;6.28;4.00;;;17.30;99.90;;;;;;8361598;28;20557;-81
2023/07/30 01:17:28;;;;;;;6.18;3.40;;;17.50;99.90;;;;;;8372870;28;20443;-81
2023/07/30 01:21:28;;;;;;;4.85;3.38;;;17.40;99.90;;;;;;8370613;28;20025;-81
2023/07/30 01:25:33;;;;;;;4.68;3.85;;;17.40;99.90;;;;;;8353449;28;20150;-80
2023/07/30 01:29:54;;;;;;;6.95;3.40;;;17.50;99.90;;;;;;8370655;28;20039;-81
2023/07/30 01:33:55;;;;;;;4.05;3.10;;;17.50;99.90;;;;;;8369576;28;20492;-81
2023/07/30 01:37:57;;;;;;;3.88;3.00;;;17.50;99.90;;;;;;8366056;28;20024;-81
2023/07/30 01:41:58;;;;;;;4.93;2.85;;;17.60;99.90;;;;;;8358247;28;20028;-83
2023/07/30 01:45:58;;;;;;;4.10;3.28;;;17.70;99.90;;;;;;8347864;28;20017;-81
2023/07/30 01:49:59;;;;;;;5.47;3.30;;;17.60;99.90;;;;;;8389241;28;20070;-81
2023/07/30 01:53:59;;;;;;;4.95;3.10;;;17.50;99.90;;;;;;8375597;28;20384;-81
2023/07/30 01:58:00;;;;;;;4.28;3.05;;;17.50;99.90;;;;;;8351595;28;20550;-81
2023/07/30 02:02:01;;;;;;;4.20;3.05;;;17.50;99.90;;;;;;8353806;28;20059;-81
2023/07/30 02:06:01;;;;;;;3.70;3.05;;;17.40;99.90;;;;;;8368296;28;20826;-81
2023/07/30 02:10:02;;;;;;;5.45;2.90;;;17.40;99.90;;;;;;8378493;28;20056;-81
2023/07/30 02:14:02;;;;;;;4.80;2.97;;;17.50;99.90;;;;;;8347429;28;20028;-81
2023/07/30 02:18:03;;;;;;;5.18;3.17;;;17.40;99.90;;;;;;8355853;28;20227;-81
2023/07/30 02:22:04;;;;;;;6.13;2.95;;;17.20;99.90;;;;;;8373983;28;20032;-82
2023/07/30 02:26:04;;;;;;;5.32;3.20;;;17.10;99.90;;;;;;8357256;28;20044;-81
2023/07/30 02:30:05;;;;;;;3.92;3.45;;;17.10;99.90;;;;;;8350009;28;20017;-81
2023/07/30 02:34:07;;;;;;;5.05;3.53;;;16.80;99.90;;;;;;8359113;28;20027;-81
2023/07/30 02:38:08;;;;;;;9.30;3.38;;;16.70;99.90;;;;;;8365008;28;20021;-80
2023/07/30 02:42:08;;;;;;;4.53;3.05;;;16.50;99.90;;;;;;8373155;28;20486;-81
2023/07/30 02:46:09;;;;;;;6.85;3.40;;;16.50;99.90;;;;;;8380344;28;20029;-81
2023/07/30 02:50:09;;;;;;;4.70;3.30;;;16.40;99.90;;;;;;8357861;28;20056;-79
2023/07/30 02:54:10;;;;;;;4.82;3.72;;;16.30;99.90;;;;;;8360476;28;20017;-80
2023/07/30 02:58:10;;;;;;;5.57;3.30;;;16.30;99.90;;;;;;8383795;28;20024;-79
2023/07/30 03:02:11;;;;;;;4.20;3.45;;;16.30;99.90;;;;;;8362560;28;20028;-80
2023/07/30 03:06:12;;;;;;;5.85;3.88;;;16.30;99.90;;;;;;8357962;28;20056;-81
2023/07/30 03:10:12;;;;;;;6.97;3.97;;;16.20;99.90;;;;;;8380335;28;20036;-81
2023/07/30 03:14:13;;;;;;;4.72;4.18;;;16.20;99.90;;;;;;8354658;28;20024;-82
2023/07/30 03:18:13;;;;;;;5.70;3.85;;;16.20;99.90;;;;;;8360515;28;20025;-81
2023/07/30 03:22:14;;;;;;;6.05;3.95;;;16.20;99.90;;;;;;8366254;28;20029;-81
2023/07/30 03:26:14;;;;;;;6.10;4.38;;;16.10;99.90;;;;;;8369375;28;20028;-81
2023/07/30 03:30:15;;;;;;;5.88;3.45;;;16.10;99.90;;;;;;8362011;28;20587;-81
2023/07/30 03:34:15;;;;;;;6.10;4.32;;;16.10;99.90;;;;;;8357468;28;20025;-81
2023/07/30 03:38:16;;;;;;;5.75;3.95;;;16.00;99.90;;;;;;8359413;28;20028;-81
2023/07/30 03:42:16;;;;;;;5.53;3.85;;;16.00;99.90;;;;;;8350884;28;20162;-82
2023/07/30 03:46:17;;;;;;;4.97;4.10;;;15.90;99.90;;;;;;8346415;28;20060;-81
2023/07/30 03:50:17;;;;;;;5.72;4.25;;;15.80;99.90;;;;;;8374396;28;20416;-82
2023/07/30 03:54:18;;;;;;;5.60;4.10;;;15.90;99.90;;;;;;8358598;28;20035;-81
2023/07/30 03:58:18;;;;;;;7.18;4.22;;;16.00;99.90;;;;;;8370181;28;20025;-80
2023/07/30 04:02:19;;;;;;;5.30;4.13;;;16.10;99.90;;;;;;8341824;28;20492;-82
2023/07/30 04:06:19;;;;;;;6.53;4.18;;;16.10;99.90;;;;;;8353652;28;20027;-81
2023/07/30 04:10:20;;;;;;;4.45;3.88;;;16.10;99.90;;;;;;8379110;28;20059;-80
2023/07/30 04:14:20;;;;;;;4.00;3.60;;;16.10;99.90;;;;;;8349955;28;20427;-81
2023/07/30 04:18:22;;;;;;;5.13;3.63;;;16.20;99.90;;;;;;8349429;28;20112;-81
2023/07/30 04:22:23;;;;;;;4.72;3.80;;;16.30;99.90;;;;;;8480958;22;20037;-76
2023/07/30 04:26:23;;;;;;;7.82;3.97;;;16.30;99.90;;;;;;8362551;28;20025;-78
2023/07/30 04:30:24;;;;;;;4.85;3.90;;;16.30;99.90;;;;;;8366322;28;20028;-77
2023/07/30 04:34:24;;;;;;;5.57;4.07;;;16.50;99.90;;;;;;8361920;28;20060;-77
2023/07/30 04:38:25;;;;;;;4.45;3.83;;;16.70;99.90;;;;;;8365622;28;20234;-78
2023/07/30 04:42:25;;;;;;;4.70;3.70;;;16.70;99.90;;;;;;8361357;28;20028;-78
2023/07/30 04:46:26;;;;;;;6.88;3.60;;;16.80;99.90;;;;;;8368485;28;20401;-79
2023/07/30 04:50:26;;;;;;;4.68;3.55;;;16.80;99.90;;;;;;8366632;28;20160;-79
2023/07/30 04:54:27;;;;;;;5.78;3.13;;;16.70;99.90;;;;;;8353880;28;20025;-79
2023/07/30 04:58:27;;;;;;;6.32;3.47;;;16.80;99.90;;;;;;8369265;28;20078;-80
2023/07/30 05:02:28;;;;;;;6.10;3.45;;;17.00;99.90;;;;;;8365607;28;20384;-78
2023/07/30 05:06:29;;;;;;;6.00;3.47;;;17.20;99.90;;;;;;8365043;28;20025;-79
2023/07/30 05:10:29;;;;;;;6.20;3.10;;;17.30;99.90;;;;;;8366098;28;20504;-79
2023/07/30 05:14:30;;;;;;;5.30;3.20;;;17.60;99.90;;;;;;8364658;28;20021;-80
2023/07/30 05:18:30;;;;;;;5.15;3.17;;;18.10;99.90;;;;;;8366649;28;20250;-79
2023/07/30 05:22:31;;;;;;;3.92;2.70;;;18.20;99.90;;;;;;8365051;28;20029;-77
2023/07/30 05:26:31;;;;;;;5.45;2.95;;;19.00;99.90;;;;;;8364999;28;20021;-79
2023/07/30 05:30:32;;;;;;;4.35;2.70;;;19.50;99.90;;;;;;8370419;28;20021;-80
2023/07/30 05:34:32;;;;;;;3.83;2.70;;;20.10;99.90;;;;;;8361870;28;20032;-80
2023/07/30 05:38:33;;;;;;;3.80;2.53;;;20.50;99.90;;;;;;8366103;28;20032;-80
2023/07/30 05:42:33;;;;;;;4.85;2.50;;;21.20;99.90;;;;;;8362472;28;20408;-79
2023/07/30 05:46:34;;;;;;;2.80;2.30;;;21.50;99.90;;;;;;8368132;28;20013;-80
2023/07/30 05:50:34;;;;;;;3.72;2.53;;;21.60;99.90;;;;;;8366673;28;20048;-78
2023/07/30 05:54:35;;;;;;;3.85;2.40;;;21.80;99.90;;;;;;8358498;28;20492;-78
2023/07/30 05:58:35;;;;;;;4.10;2.50;;;21.90;99.90;;;;;;8367817;28;20044;-80
2023/07/30 06:02:36;;;;;;;3.30;2.50;;;22.30;99.90;;;;;;8358185;28;20085;-79
2023/07/30 06:06:36;;;;;;;2.75;2.20;;;22.10;99.90;;;;;;8355450;28;20119;-79
2023/07/30 06:10:38;;;;;;;2.67;2.05;;;22.50;99.90;;;;;;8381036;28;20286;-80
2023/07/30 06:14:38;;;;;;;7.00;2.45;;;22.90;99.90;;;;;;8360639;28;20045;-79
2023/07/30 06:18:39;;;;;;;3.10;2.30;;;23.00;99.90;;;;;;8366082;28;20421;-80
2023/07/30 06:22:40;;;;;;;3.33;2.10;;;23.50;99.90;;;;;;8365338;28;20512;-79
2023/07/30 06:26:40;;;;;;;3.13;1.83;;;23.20;99.90;;;;;;8368095;28;20024;-78
2023/07/30 06:30:41;;;;;;;3.42;2.00;;;23.40;99.90;;;;;;8366092;28;20496;-78
2023/07/30 06:34:41;;;;;;;3.00;1.90;;;23.10;99.90;;;;;;8363246;28;20017;-79
2023/07/30 06:38:42;;;;;;;2.95;2.30;;;23.30;99.90;;;;;;8377994;28;20048;-78
2023/07/30 06:42:42;;;;;;;2.95;2.00;;;23.40;99.90;;;;;;8364640;28;20025;-79
2023/07/30 06:46:43;;;;;;;3.58;2.38;;;23.90;99.90;;;;;;8367461;28;20021;-78
2023/07/30 06:50:43;;;;;;;2.75;2.10;;;24.60;99.90;;;;;;8369670;28;20032;-81
2023/07/30 06:54:44;;;;;;;2.08;1.77;;;25.30;99.90;;;;;;8365367;28;20093;-79
2023/07/30 06:58:44;;;;;;;2.10;1.90;;;25.10;99.90;;;;;;8362632;28;20029;-79
2023/07/30 07:02:45;;;;;;;3.08;2.00;;;25.00;99.90;;;;;;8362725;28;20484;-80
2023/07/30 07:06:45;;;;;;;2.10;1.65;;;24.90;99.90;;;;;;8365591;28;20025;-80
2023/07/30 07:10:46;;;;;;;3.65;1.98;;;25.00;99.90;;;;;;8367861;28;20087;-80
2023/07/30 07:14:46;;;;;;;2.50;1.88;;;24.90;99.90;;;;;;8382272;28;20086;-80
2023/07/30 07:18:48;;;;;;;2.65;2.17;;;25.00;99.90;;;;;;8376470;28;20025;-80
2023/07/30 07:22:49;;;;;;;3.47;2.00;;;25.50;99.90;;;;;;8362289;28;22147;-80
2023/07/30 07:26:50;;;;;;;2.30;1.70;;;25.50;99.90;;;;;;8371111;28;20029;-80
2023/07/30 07:30:50;;;;;;;2.03;1.80;;;25.70;99.90;;;;;;8364694;28;20517;-79
2023/07/30 07:34:51;;;;;;;3.65;1.92;;;25.70;99.90;;;;;;8362018;28;20036;-80
2023/07/30 07:38:51;;;;;;;4.10;1.85;;;25.60;99.90;;;;;;8361322;28;20488;-81
2023/07/30 07:42:52;;;;;;;2.63;1.88;;;24.50;99.90;;;;;;8362655;28;20492;-80
2023/07/30 07:46:52;;;;;;;2.40;1.95;;;23.50;99.90;;;;;;8366377;28;20049;-81
2023/07/30 07:50:53;;;;;;;2.10;1.70;;;23.60;99.90;;;;;;8364286;28;20063;-79
2023/07/30 07:54:53;;;;;;;4.97;1.50;;;23.90;99.90;;;;;;8364510;28;20124;-80
2023/07/30 07:58:54;;;;;;;3.75;1.50;;;24.40;99.90;;;;;;8381510;28;20028;-78
2023/07/30 08:02:54;;;;;;;1.90;1.70;;;24.10;99.90;;;;;;8361052;28;20043;-80
2023/07/30 08:06:59;;;;;;;1.67;1.50;;;24.00;99.90;;;;;;8369116;28;20411;-80
2023/07/30 08:11:06;;;;;;;2.25;1.70;;;24.60;99.90;;;;;;8366589;28;20024;-80
2023/07/30 08:15:07;;;;;;;1.83;1.60;;;24.90;99.90;;;;;;8356362;28;20032;-80
2023/07/30 08:19:08;;;;;;;2.17;1.55;;;25.20;99.90;;;;;;8366978;28;20020;-80
2023/07/30 08:23:08;;;;;;;2.35;1.58;;;25.30;99.90;;;;;;8361159;28;20053;-81
2023/07/30 08:27:09;;;;;;;2.08;1.40;;;25.40;99.90;;;;;;8369662;28;20040;-82
2023/07/30 08:31:09;;;;;;;1.70;1.50;;;25.70;99.90;;;;;;8363261;28;20028;-81
2023/07/30 08:35:10;;;;;;;1.67;1.40;;;26.30;99.90;;;;;;8367871;28;20029;-81
2023/07/30 08:39:11;;;;;;;2.45;1.65;;;26.40;99.90;;;;;;8369937;28;20503;-79
2023/07/30 08:43:11;;;;;;;2.05;1.85;;;26.10;99.90;;;;;;8370288;28;20020;-81
2023/07/30 08:47:12;;;;;;;1.90;1.40;;;25.80;99.90;;;;;;8374399;28;20020;-80
2023/07/30 08:51:14;;;;;;;3.08;1.88;;;25.70;99.90;;;;;;8363555;28;20021;-80
2023/07/30 08:55:16;;;;;;;1.33;1.20;;;26.30;99.90;;;;;;8373046;28;20020;-81
2023/07/30 08:59:19;;;;;;;1.67;1.52;;;27.20;99.90;;;;;;8364428;28;20105;-81
2023/07/30 09:03:22;;;;;;;1.85;1.42;;;26.60;99.90;;;;;;8364400;28;20111;-81
2023/07/30 09:07:24;;;;;;;2.20;1.60;;;25.90;99.90;;;;;;8365356;28;20055;-83
2023/07/30 09:11:28;;;;;;;1.30;1.20;;;26.20;99.90;;;;;;8365762;28;20045;-80
2023/07/30 09:15:33;;;;;;;1.85;1.25;;;26.40;99.90;;;;;;8364262;28;20024;-82
2023/07/30 09:19:35;;;;;;;1.50;1.40;;;26.00;99.90;;;;;;8361445;28;20120;-81
2023/07/30 09:23:43;;;;;;;2.20;1.25;;;26.40;99.90;;;;;;8357206;28;20076;-82
2023/07/30 09:27:48;;;;;;;1.40;1.27;;;26.30;99.90;;;;;;8365137;28;20048;-81
2023/07/30 09:31:53;;;;;;;1.83;1.38;;;26.70;99.90;;;;;;8362882;28;20087;-81
2023/07/30 09:35:54;;;;;;;2.85;1.30;;;26.90;99.90;;;;;;8363256;28;20401;-81
2023/07/30 09:39:58;;;;;;;2.08;1.33;;;26.90;99.90;;;;;;8362737;28;20025;-82
2023/07/30 09:43:58;;;;;;;1.38;1.27;;;27.10;99.90;;;;;;8358235;28;20504;-81
2023/07/30 09:47:59;;;;;;;1.50;1.10;;;27.40;99.90;;;;;;8371341;28;20025;-81
2023/07/30 09:52:02;;;;;;;1.88;1.40;;;27.30;99.90;;;;;;8374880;28;20045;-80
2023/07/30 09:56:05;;;;;;;1.80;1.40;;;27.20;99.90;;;;;;8365166;28;20481;-81
2023/07/30 10:00:08;;;;;;;1.95;1.10;;;26.60;99.90;;;;;;8363594;28;20459;-82
2023/07/30 10:04:10;;;;;;;2.17;1.40;;;25.80;99.90;;;;;;8355257;28;20025;-81
2023/07/30 10:08:16;;;;;;;1.42;1.30;;;25.40;99.90;;;;;;8364749;28;20044;-82
2023/07/30 10:12:21;;;;;;;1.83;1.60;;;25.20;99.90;;;;;;8363231;28;20248;-81
2023/07/30 10:16:29;;;;;;;1.67;1.38;;;25.70;99.90;;;;;;8362243;28;20023;-81
2023/07/30 10:20:31;;;;;;;1.85;1.42;;;25.70;99.90;;;;;;8362175;28;20029;-81
2023/07/30 10:24:32;;;;;;;1.73;1.27;;;26.00;99.90;;;;;;8368547;28;20033;-82
2023/07/30 10:28:33;;;;;;;4.38;1.25;;;25.80;99.90;;;;;;8374220;28;20028;-83
2023/07/30 10:32:41;;;;;;;1.70;1.20;;;25.70;99.90;;;;;;8360409;28;20041;-82
2023/07/30 10:36:45;;;;;;;2.42;1.10;;;25.60;99.90;;;;;;8364893;28;20475;-81
2023/07/30 10:41:06;;;;;;;2.50;1.40;;;26.00;99.90;;;;;;8365958;28;20032;-81
2023/07/30 10:45:07;;;;;;;;;;;26.30;99.90;;;;;;8360410;28;20452;-83
2023/07/30 10:49:09;;;;;;;;;;;25.90;99.90;;;;;;8370081;28;19962;-83
2023/07/30 10:53:10;;;;;;;2.28;1.05;;;25.40;99.90;;;;;;8365718;28;19965;-85
2023/07/30 10:57:11;;;;;;;1.02;0.82;;;25.60;99.90;;;;;;8375497;28;20025;-83
2023/07/30 11:01:11;;;;;;;1.67;1.13;;;24.60;99.90;;;;;;8369980;28;20024;-82
2023/07/30 11:05:13;;;;;;;3.60;1.27;;;25.80;99.90;;;;;;8370447;28;20120;-83
2023/07/30 11:09:27;;;;;;;1.55;1.20;;;25.30;99.90;;;;;;8376706;28;20029;-82
2023/07/30 11:13:28;;;;;;;3.47;1.45;;;24.50;99.90;;;;;;8372902;28;20488;-83
2023/07/30 11:17:28;;;;;;;3.08;1.30;;;24.80;99.90;;;;;;8370692;28;20025;-83
2023/07/30 11:21:29;;;;;;;1.92;1.48;;;25.80;99.90;;;;;;8370524;28;20041;-82
2023/07/30 11:25:29;;;;;;;2.05;1.40;;;27.10;99.90;;;;;;8371970;28;20075;-83
2023/07/30 11:29:30;;;;;;;1.58;1.33;;;27.50;99.90;;;;;;8370758;28;20036;-83
2023/07/30 11:33:31;;;;;;;1.60;1.50;;;28.80;99.90;;;;;;8369547;28;20109;-81
2023/07/30 11:37:32;;;;;;;3.25;1.60;;;29.30;97.30;;;;;;8381977;28;20082;-83
2023/07/30 11:41:33;;;;;;;1.10;0.90;;;28.20;99.90;;;;;;8371826;28;20061;-82
2023/07/30 11:45:34;;;;;;;0.70;0.65;;;26.80;99.90;;;;;;8363917;28;20033;-84
2023/07/30 11:49:35;;;;;;;1.10;0.82;;;24.50;99.90;;;;;;8370495;28;20032;-82
2023/07/30 11:54:17;;;;;;;1.45;1.35;;;22.70;99.90;;;;;;8368446;28;20029;-82
2023/07/30 11:58:18;;;;;;;1.70;1.40;;;22.80;99.90;;;;;;8359270;28;20029;-83
2023/07/30 12:02:18;;;;;;;2.20;1.40;;;21.50;99.90;;;;;;8365220;28;20025;-83
2023/07/30 12:06:19;;;;;;;1.52;1.10;;;21.60;99.90;;;;;;8360227;28;20114;-83
2023/07/30 12:10:19;;;;;;;1.95;1.23;;;24.50;99.90;;;;;;8370177;28;20112;-82
2023/07/30 12:14:30;;;;;;;2.45;1.25;;;25.20;99.90;;;;;;8368687;28;20025;-82
2023/07/30 12:18:30;;;;;;;1.40;1.17;;;25.60;99.90;;;;;;8374682;28;20066;-80
2023/07/30 12:22:31;;;;;;;1.20;1.00;;;25.30;99.90;;;;;;8381447;28;20576;-79
2023/07/30 12:26:31;;;;;;;1.80;1.15;;;25.70;99.90;;;;;;8374445;28;20507;-80
2023/07/30 12:30:33;;;;;;;1.75;1.23;;;25.70;99.90;;;;;;8366120;28;20060;-82
2023/07/30 12:34:34;;;;;;;2.47;1.40;;;27.00;99.90;;;;;;8372503;28;20062;-82
2023/07/30 12:38:34;;;;;;;1.42;1.17;;;28.10;99.90;;;;;;8367261;28;20427;-82
2023/07/30 12:42:35;;;;;;;1.60;1.33;;;27.70;99.90;;;;;;8374262;28;20033;-82
2023/07/30 12:46:35;;;;;;;1.85;1.33;;;27.20;99.90;;;;;;8370538;28;20021;-81
2023/07/30 12:50:36;;;;;;;3.47;1.63;;;28.10;99.90;;;;;;8365071;28;20028;-81
2023/07/30 12:54:36;;;;;;;2.08;1.30;;;28.70;99.90;;;;;;8371275;28;20025;-82
2023/07/30 12:58:37;;;;;;;2.38;1.58;;;26.80;99.90;;;;;;8361824;28;20017;-81
2023/07/30 13:02:37;;;;;;;1.83;1.30;;;25.10;99.90;;;;;;8374099;28;20083;-80
2023/07/30 13:06:38;;;;;;;1.65;1.38;;;23.80;99.90;;;;;;8361585;28;20485;-82
2023/07/30 13:10:38;;;;;;;2.22;1.40;;;23.50;99.90;;;;;;8368679;28;20024;-82
2023/07/30 13:14:39;;;;;;;3.88;1.40;;;25.70;99.90;;;;;;8372589;28;20154;-79
2023/07/30 13:18:39;;;;;;;2.58;1.60;;;27.40;99.90;;;;;;8370409;28;20045;-77
2023/07/30 13:22:40;;;;;;;1.73;1.40;;;29.60;99.90;;;;;;8362056;28;20033;-78
2023/07/30 13:26:40;;;;;;;2.13;1.40;;;31.30;98.20;;;;;;8361628;28;21234;-78
2023/07/30 13:30:44;;;;;;;2.97;1.48;;;28.90;98.40;;;;;;8357702;28;20102;-79
2023/07/30 13:34:45;;;;;;;2.45;1.38;;;28.60;97.10;;;;;;8358325;28;20021;-80
2023/07/30 13:38:45;;;;;;;4.30;1.45;;;27.00;97.80;;;;;;8377637;28;20021;-80
2023/07/30 13:42:46;;;;;;;2.22;1.45;;;28.80;94.30;;;;;;8351571;28;20041;-80
2023/07/30 13:46:46;;;;;;;2.10;1.52;;;30.40;94.90;;;;;;8355639;28;20082;-78
2023/07/30 13:50:47;;;;;;;3.35;1.90;;;26.70;99.30;;;;;;8360095;28;20053;-79
2023/07/30 13:54:47;;;;;;;1.45;1.35;;;24.90;99.90;;;;;;8359583;28;20436;-79
2023/07/30 13:58:48;;;;;;;1.50;1.30;;;26.50;99.90;;;;;;8360795;28;20151;-79
2023/07/30 14:02:50;;;;;;;1.92;1.33;;;28.60;98.00;;;;;;8362953;28;20024;-78
2023/07/30 14:06:51;;;;;;;2.88;1.92;;;29.50;98.50;;;;;;8366283;28;20029;-78
2023/07/30 14:10:52;;;;;;;3.05;1.50;;;27.20;98.10;;;;;;8356259;28;20400;-77
2023/07/30 14:14:52;;;;;;;1.60;1.45;;;24.90;99.90;;;;;;8359650;28;20573;-78
2023/07/30 14:18:53;;;;;;;2.63;1.40;;;24.90;99.90;;;;;;8359235;28;20021;-77
2023/07/30 14:22:54;;;;;;;1.80;1.40;;;26.90;99.90;;;;;;8364737;28;20388;-78
2023/07/30 14:26:54;;;;;;;2.42;1.70;;;27.10;98.30;;;;;;8357279;28;20449;-78
2023/07/30 14:30:55;;;;;;;1.58;1.45;;;28.60;99.20;;;;;;8362358;28;20049;-78
2023/07/30 14:34:55;;;;;;;3.25;1.70;;;28.40;96.70;;;;;;8359313;28;20456;-78
2023/07/30 14:38:56;;;;;;;2.42;1.67;;;27.40;96.60;;;;;;8356093;28;20376;-78
2023/07/30 14:42:56;;;;;;;2.70;1.80;;;26.40;98.50;;;;;;8359661;28;20519;-78
2023/07/30 14:46:58;;;;;;;2.70;1.73;;;26.00;99.90;;;;;;8365095;28;20108;-78
2023/07/30 14:50:58;;;;;;;2.30;1.63;;;29.20;94.30;;;;;;8364829;28;20040;-79
2023/07/30 14:54:59;;;;;;;1.60;1.30;;;29.30;94.10;;;;;;8364616;28;20129;-79
2023/07/30 14:58:59;;;;;;;3.28;1.80;;;26.70;95.00;;;;;;8365116;28;20028;-77
2023/07/30 15:03:00;;;;;;;3.00;1.65;;;24.60;99.30;;;;;;8366167;28;20090;-80
2023/07/30 15:07:01;;;;;;;3.10;1.60;;;23.90;99.90;;;;;;8363392;28;20090;-78
2023/07/30 15:11:02;;;;;;;4.50;1.73;;;23.70;99.90;;;;;;8365601;28;20037;-79
2023/07/30 15:15:05;;;;;;;2.08;1.60;;;25.20;99.90;;;;;;8368848;28;20096;-78
2023/07/30 15:19:06;;;;;;;1.83;1.58;;;26.50;98.60;;;;;;8379326;28;20116;-76
2023/07/30 15:23:06;;;;;;;2.45;1.80;;;24.30;99.90;;;;;;8368420;28;20037;-78
2023/07/30 15:27:07;;;;;;;4.00;1.77;;;23.30;99.90;;;;;;8374740;28;20124;-80
2023/07/30 15:31:07;;;;;;;2.05;1.75;;;22.90;99.90;;;;;;8383338;28;20021;-80
2023/07/30 15:35:09;;;;;;;1.80;1.60;;;25.10;99.90;;;;;;8371099;28;20040;-78
2023/07/30 15:39:10;;;;;;;1.52;1.40;;;25.80;99.90;;;;;;8379749;28;20074;-79
2023/07/30 15:43:12;;;;;;;2.38;1.90;;;24.70;99.90;;;;;;8365783;28;20028;-79
2023/07/30 15:47:13;;;;;;;2.60;1.90;;;23.70;99.90;;;;;;8369638;28;20642;-81
2023/07/30 15:51:13;;;;;;;4.65;1.65;;;23.00;99.90;;;;;;8378156;28;20029;-79
2023/07/30 15:55:14;;;;;;;2.20;1.73;;;22.80;99.90;;;;;;8369865;28;20022;-80
2023/07/30 15:59:15;;;;;;;3.45;1.83;;;23.10;99.90;;;;;;8372848;28;20093;-78
2023/07/30 16:03:15;;;;;;;2.88;2.00;;;23.30;99.90;;;;;;8367694;28;20025;-80
2023/07/30 16:07:16;;;;;;;2.30;1.83;;;23.10;99.90;;;;;;8366061;28;20017;-79
2023/07/30 16:11:16;;;;;;;3.88;1.90;;;23.30;99.90;;;;;;8363758;28;20025;-80
2023/07/30 16:15:17;;;;;;;2.30;1.92;;;23.60;99.90;;;;;;8365222;28;20430;-78
2023/07/30 16:19:17;;;;;;;3.40;1.88;;;23.70;99.90;;;;;;8348431;28;20077;-78
2023/07/30 16:27:21;;;;;;;2.47;1.70;;;22.70;99.90;;;;;;8418937;28;20118;-78
2023/07/30 16:31:21;;;;;;;2.92;1.90;;;22.40;99.90;;;;;;8400251;28;20017;-78
2023/07/30 16:35:22;;;;;;;2.30;1.95;;;22.10;99.90;;;;;;8369499;28;20055;-78
2023/07/30 16:39:22;;;;;;;4.90;1.73;;;21.90;99.90;;;;;;8384181;28;20035;-78
2023/07/30 16:43:23;;;;;;;3.42;2.13;;;21.90;99.90;;;;;;8392418;28;20029;-78
2023/07/30 16:47:23;;;;;;;3.13;2.40;;;21.80;99.90;;;;;;8374548;28;20029;-79
2023/07/30 16:51:24;;;;;;;4.13;1.90;;;21.70;99.90;;;;;;8376394;28;20024;-78
2023/07/30 16:55:29;;;;;;;2.30;1.73;;;21.50;99.90;;;;;;8384161;28;20021;-79
2023/07/30 16:59:29;;;;;;;2.95;1.85;;;21.30;99.90;;;;;;8420170;28;20016;-78
2023/07/30 17:03:30;;;;;;;3.75;2.30;;;21.20;99.90;;;;;;8386523;28;20033;-79
2023/07/30 17:07:31;;;;;;;4.65;2.10;;;21.00;99.90;;;;;;8386123;28;20484;-78
2023/07/30 17:11:31;;;;;;;3.38;1.95;;;20.90;99.90;;;;;;8377425;28;20025;-79
2023/07/30 17:15:34;;;;;;;2.92;1.98;;;20.90;99.90;;;;;;8380029;28;20452;-78
2023/07/30 17:19:35;;;;;;;2.33;1.92;;;20.80;99.90;;;;;;8376920;28;20492;-79
2023/07/30 17:23:36;;;;;;;4.03;2.10;;;20.80;99.90;;;;;;8399291;28;20035;-78
2023/07/30 17:27:36;;;;;;;3.45;2.28;;;20.50;99.90;;;;;;8383171;28;20032;-78
2023/07/30 17:31:37;;;;;;;4.70;2.10;;;20.20;99.90;;;;;;8384393;28;20028;-78
2023/07/30 17:35:37;;;;;;;2.65;1.88;;;20.20;99.90;;;;;;8400205;28;20044;-78
2023/07/30 17:39:38;;;;;;;4.03;1.70;;;20.10;99.90;;;;;;8413666;28;20499;-78
2023/07/30 17:43:39;;;;;;;3.55;1.85;;;20.10;99.90;;;;;;8406506;28;20028;-79
2023/07/30 17:47:40;;;;;;;2.70;1.90;;;20.10;99.90;;;;;;8379949;28;20032;-78
2023/07/30 17:51:40;;;;;;;5.95;1.98;;;20.20;99.90;;;;;;8377993;28;20036;-78
2023/07/30 17:55:45;;;;;;;6.97;1.80;;;20.00;99.90;;;;;;8373075;28;20017;-78
2023/07/30 17:59:45;;;;;;;3.15;1.90;;;19.90;99.90;;;;;;8394355;28;20088;-79
2023/07/30 18:03:46;;;;;;;5.38;1.90;;;19.80;99.90;;;;;;8391202;28;20576;-78
2023/07/30 18:07:46;;;;;;;4.40;1.95;;;19.50;99.90;;;;;;8380362;28;20027;-78
2023/07/30 18:11:47;;;;;;;2.00;1.70;;;19.20;99.90;;;;;;8382243;28;20040;-78
2023/07/30 18:15:47;;;;;;;3.30;1.73;;;19.00;99.90;;;;;;8377689;28;20480;-78
2023/07/30 18:19:48;;;;;;;3.10;1.80;;;18.80;99.90;;;;;;8378877;28;20027;-78
2023/07/30 18:23:48;;;;;;;3.85;1.65;;;18.60;99.90;;;;;;8378318;28;20025;-78
2023/07/30 18:27:49;;;;;;;3.42;1.70;;;18.40;99.90;;;;;;8377754;28;20391;-78
2023/07/30 18:31:49;;;;;;;4.63;1.52;;;18.30;99.90;;;;;;8376201;28;20484;-78
2023/07/30 18:35:58;;;;;;;4.80;1.73;;;18.20;99.90;;;;;;8378094;28;20572;-77
2023/07/30 18:39:59;;;;;;;9.23;1.85;;;18.10;99.90;;;;;;8390494;28;20404;-78
2023/07/30 18:43:59;;;;;;;3.28;1.40;;;18.00;99.90;;;;;;8382147;28;20028;-79
2023/07/30 18:48:01;;;;;;;3.45;1.67;;;17.80;99.90;;;;;;8390722;28;20032;-78
2023/07/30 18:52:01;;;;;;;3.80;1.48;;;17.70;99.90;;;;;;8389848;28;20107;-77
2023/07/30 18:56:04;;;;;;;4.40;1.42;;;17.60;99.90;;;;;;8390412;28;20024;-78
2023/07/30 19:00:05;;;;;;;3.58;1.80;;;17.40;99.90;;;;;;8380265;28;20028;-79
2023/07/30 19:04:05;;;;;;;4.95;1.50;;;17.30;99.90;;;;;;8413519;28;20021;-78
2023/07/30 19:08:06;;;;;;;3.22;1.70;;;17.20;99.90;;;;;;8382579;28;20031;-77
2023/07/30 19:12:07;;;;;;;3.35;1.58;;;17.20;99.90;;;;;;8377556;28;20024;-78
2023/07/30 19:16:08;;;;;;;2.75;1.70;;;17.00;99.90;;;;;;8384426;28;20024;-78
2023/07/30 19:20:09;;;;;;;2.75;1.70;;;16.80;99.90;;;;;;8401118;28;20111;-79
2023/07/30 19:24:10;;;;;;;3.38;1.60;;;16.50;99.90;;;;;;8376422;28;20033;-78
2023/07/30 19:28:11;;;;;;;4.63;1.67;;;16.30;99.90;;;;;;8386977;28;20032;-79
2023/07/30 19:32:11;;;;;;;3.15;1.80;;;16.40;99.90;;;;;;8380363;28;20074;-78
2023/07/30 19:36:12;;;;;;;3.13;1.75;;;16.20;99.90;;;;;;8380016;28;20026;-79
2023/07/30 19:40:12;;;;;;;4.95;1.60;;;15.80;99.90;;;;;;8391708;28;20020;-78
2023/07/30 19:44:13;;;;;;;1.88;1.50;;;15.60;99.90;;;;;;8386005;28;20038;-78
2023/07/30 19:48:14;;;;;;;2.45;1.52;;;15.50;99.90;;;;;;8377325;28;20048;-79
2023/07/30 19:52:14;;;;;;;3.08;1.58;;;15.30;99.90;;;;;;8391044;28;20037;-78
2023/07/30 19:56:15;;;;;;;4.07;1.50;;;15.20;99.90;;;;;;8387715;28;20119;-79
2023/07/30 20:00:16;;;;;;;3.85;1.92;;;15.20;99.90;;;;;;8391700;28;20024;-78
2023/07/30 20:04:16;;;;;;;5.53;2.00;;;15.20;99.90;;;;;;8405121;28;20545;-78
2023/07/30 20:08:17;;;;;;;3.55;1.85;;;15.30;99.90;;;;;;8394432;28;20397;-78
2023/07/30 20:12:18;;;;;;;4.65;1.85;;;15.40;99.90;;;;;;8393996;28;20039;-78
2023/07/30 20:16:18;;;;;;;4.80;1.80;;;15.10;99.90;;;;;;8385308;28;20506;-78
2023/07/30 20:20:19;;;;;;;4.47;2.17;;;14.70;99.90;;;;;;8398456;28;20515;-78
2023/07/30 20:24:20;;;;;;;5.35;2.22;;;14.50;99.90;;;;;;8392340;28;20060;-78
2023/07/30 20:28:21;;;;;;;2.97;1.67;;;14.30;99.90;;;;;;8377544;28;20087;-78
2023/07/30 20:32:23;;;;;;;3.88;2.00;;;14.10;99.90;;;;;;8388966;28;20036;-78
2023/07/30 20:36:24;;;;;;;3.00;2.10;;;14.10;99.90;;;;;;8395128;28;20518;-79
2023/07/30 20:40:25;;;;;;;10.65;2.47;;;13.80;99.90;;;;;;8375951;28;20032;-78
2023/07/30 20:44:26;;;;;;;5.57;2.10;;;13.60;99.90;;;;;;8377532;28;20028;-78
2023/07/30 20:48:26;;;;;;;4.30;1.95;;;13.60;99.90;;;;;;8383892;28;20669;-78
2023/07/30 20:52:27;;;;;;;4.82;1.90;;;13.70;99.90;;;;;;8377059;28;20077;-77
2023/07/30 20:56:30;;;;;;;4.00;2.30;;;13.70;99.90;;;;;;8382294;28;20024;-78
2023/07/30 21:00:31;;;;;;;4.00;2.35;;;13.60;99.90;;;;;;8376951;28;20035;-78